sensor_id;sensor_type;location;lat;lon;timestamp;P1;durP1;ratioP1;P2;durP2;ratioP2
75667;SDS011;64266;48.798;44.756;2023-02-28T00:00:26;45.78;;;19.90;;
75667;SDS011;64266;48.798;44.756;2023-02-28T00:05:33;38.97;;;18.35;;
75667;SDS011;64266;48.798;44.756;2023-02-28T00:10:46;42.22;;;18.80;;
75667;SDS011;64266;48.798;44.756;2023-02-28T00:16:02;41.65;;;18.75;;
75667;SDS011;64266;48.798;44.756;2023-02-28T00:21:20;38.47;;;18.58;;
75667;SDS011;64266;48.798;44.756;2023-02-28T00:26:23;41.13;;;18.85;;
75667;SDS011;64266;48.798;44.756;2023-02-28T00:31:29;39.55;;;19.10;;
75667;SDS011;64266;48.798;44.756;2023-02-28T00:41:38;58.92;;;23.33;;
75667;SDS011;64266;48.798;44.756;2023-02-28T00:46:45;51.55;;;24.25;;
75667;SDS011;64266;48.798;44.756;2023-02-28T00:51:51;45.50;;;20.00;;
75667;SDS011;64266;48.798;44.756;2023-02-28T00:57:03;47.58;;;19.67;;
75667;SDS011;64266;48.798;44.756;2023-02-28T01:02:15;49.22;;;22.17;;
75667;SDS011;64266;48.798;44.756;2023-02-28T01:07:21;48.97;;;21.23;;
75667;SDS011;64266;48.798;44.756;2023-02-28T01:12:24;55.58;;;22.50;;
75667;SDS011;64266;48.798;44.756;2023-02-28T01:23:00;50.25;;;20.20;;
75667;SDS011;64266;48.798;44.756;2023-02-28T01:28:12;49.03;;;17.50;;
75667;SDS011;64266;48.798;44.756;2023-02-28T01:33:23;47.38;;;18.00;;
75667;SDS011;64266;48.798;44.756;2023-02-28T01:38:52;53.70;;;18.13;;
75667;SDS011;64266;48.798;44.756;2023-02-28T01:49:49;38.70;;;15.13;;
75667;SDS011;64266;48.798;44.756;2023-02-28T01:54:54;38.83;;;16.38;;
75667;SDS011;64266;48.798;44.756;2023-02-28T02:00:11;31.83;;;14.55;;
75667;SDS011;64266;48.798;44.756;2023-02-28T02:05:23;34.83;;;14.23;;
75667;SDS011;64266;48.798;44.756;2023-02-28T02:10:31;42.90;;;20.13;;
75667;SDS011;64266;48.798;44.756;2023-02-28T02:15:44;33.75;;;15.60;;
75667;SDS011;64266;48.798;44.756;2023-02-28T02:48:06;45.30;;;21.13;;
75667;SDS011;64266;48.798;44.756;2023-02-28T02:53:16;53.33;;;20.63;;
75667;SDS011;64266;48.798;44.756;2023-02-28T02:58:26;37.25;;;15.95;;
75667;SDS011;64266;48.798;44.756;2023-02-28T03:03:34;42.78;;;16.23;;
75667;SDS011;64266;48.798;44.756;2023-02-28T03:08:43;45.00;;;14.55;;
75667;SDS011;64266;48.798;44.756;2023-02-28T03:13:52;45.03;;;16.45;;
75667;SDS011;64266;48.798;44.756;2023-02-28T03:24:56;21.33;;;10.23;;
75667;SDS011;64266;48.798;44.756;2023-02-28T03:30:29;26.63;;;11.90;;
75667;SDS011;64266;48.798;44.756;2023-02-28T03:35:48;28.10;;;11.40;;
75667;SDS011;64266;48.798;44.756;2023-02-28T03:41:22;21.95;;;9.82;;
75667;SDS011;64266;48.798;44.756;2023-02-28T03:46:35;21.40;;;9.80;;
75667;SDS011;64266;48.798;44.756;2023-02-28T03:51:55;23.20;;;10.13;;
75667;SDS011;64266;48.798;44.756;2023-02-28T04:02:40;31.98;;;10.68;;
75667;SDS011;64266;48.798;44.756;2023-02-28T04:07:48;32.10;;;9.65;;
75667;SDS011;64266;48.798;44.756;2023-02-28T04:12:54;30.95;;;9.68;;
75667;SDS011;64266;48.798;44.756;2023-02-28T04:18:04;26.92;;;8.77;;
75667;SDS011;64266;48.798;44.756;2023-02-28T04:23:06;24.83;;;8.85;;
75667;SDS011;64266;48.798;44.756;2023-02-28T04:28:12;23.70;;;8.75;;
75667;SDS011;64266;48.798;44.756;2023-02-28T04:33:15;20.65;;;8.52;;
75667;SDS011;64266;48.798;44.756;2023-02-28T04:43:29;20.60;;;8.45;;
75667;SDS011;64266;48.798;44.756;2023-02-28T04:48:34;27.88;;;8.35;;
75667;SDS011;64266;48.798;44.756;2023-02-28T04:53:53;18.70;;;8.25;;
75667;SDS011;64266;48.798;44.756;2023-02-28T04:59:05;18.88;;;9.10;;
75667;SDS011;64266;48.798;44.756;2023-02-28T05:04:08;22.90;;;8.60;;
75667;SDS011;64266;48.798;44.756;2023-02-28T05:09:12;25.55;;;9.75;;
75667;SDS011;64266;48.798;44.756;2023-02-28T05:14:17;35.42;;;14.45;;
75667;SDS011;64266;48.798;44.756;2023-02-28T05:19:21;28.70;;;13.50;;
75667;SDS011;64266;48.798;44.756;2023-02-28T05:24:25;16.02;;;8.52;;
75667;SDS011;64266;48.798;44.756;2023-02-28T05:29:28;20.35;;;8.65;;
75667;SDS011;64266;48.798;44.756;2023-02-28T05:34:33;18.95;;;9.13;;
75667;SDS011;64266;48.798;44.756;2023-02-28T05:39:35;31.80;;;14.23;;
75667;SDS011;64266;48.798;44.756;2023-02-28T05:44:39;23.92;;;9.80;;
75667;SDS011;64266;48.798;44.756;2023-02-28T05:49:42;20.13;;;8.10;;
75667;SDS011;64266;48.798;44.756;2023-02-28T05:54:45;18.27;;;8.45;;
75667;SDS011;64266;48.798;44.756;2023-02-28T05:59:49;21.27;;;11.13;;
75667;SDS011;64266;48.798;44.756;2023-02-28T06:04:53;20.23;;;9.90;;
75667;SDS011;64266;48.798;44.756;2023-02-28T06:09:57;16.88;;;7.88;;
75667;SDS011;64266;48.798;44.756;2023-02-28T06:15:00;19.48;;;9.80;;
75667;SDS011;64266;48.798;44.756;2023-02-28T06:20:05;18.92;;;11.07;;
75667;SDS011;64266;48.798;44.756;2023-02-28T06:25:09;15.48;;;9.40;;
75667;SDS011;64266;48.798;44.756;2023-02-28T06:30:13;13.50;;;7.00;;
75667;SDS011;64266;48.798;44.756;2023-02-28T06:35:17;11.88;;;5.70;;
75667;SDS011;64266;48.798;44.756;2023-02-28T06:40:20;10.73;;;5.25;;
75667;SDS011;64266;48.798;44.756;2023-02-28T06:45:25;9.65;;;5.75;;
75667;SDS011;64266;48.798;44.756;2023-02-28T06:51:12;15.57;;;7.68;;
75667;SDS011;64266;48.798;44.756;2023-02-28T06:56:17;16.30;;;6.22;;
75667;SDS011;64266;48.798;44.756;2023-02-28T07:01:23;12.20;;;6.50;;
75667;SDS011;64266;48.798;44.756;2023-02-28T07:06:27;8.55;;;5.20;;
75667;SDS011;64266;48.798;44.756;2023-02-28T07:11:30;12.68;;;5.35;;
75667;SDS011;64266;48.798;44.756;2023-02-28T07:16:34;15.63;;;5.80;;
75667;SDS011;64266;48.798;44.756;2023-02-28T07:21:38;20.00;;;5.55;;
75667;SDS011;64266;48.798;44.756;2023-02-28T07:26:41;24.48;;;8.07;;
75667;SDS011;64266;48.798;44.756;2023-02-28T07:37:14;33.30;;;10.18;;
75667;SDS011;64266;48.798;44.756;2023-02-28T07:42:19;24.35;;;8.50;;
75667;SDS011;64266;48.798;44.756;2023-02-28T07:47:22;19.33;;;8.32;;
75667;SDS011;64266;48.798;44.756;2023-02-28T07:52:42;15.40;;;7.65;;
75667;SDS011;64266;48.798;44.756;2023-02-28T07:57:45;14.50;;;7.95;;
75667;SDS011;64266;48.798;44.756;2023-02-28T08:02:49;13.50;;;7.28;;
75667;SDS011;64266;48.798;44.756;2023-02-28T08:07:53;14.50;;;6.75;;
75667;SDS011;64266;48.798;44.756;2023-02-28T08:12:57;12.93;;;7.05;;
75667;SDS011;64266;48.798;44.756;2023-02-28T08:18:04;10.27;;;5.60;;
75667;SDS011;64266;48.798;44.756;2023-02-28T08:28:38;12.93;;;6.88;;
75667;SDS011;64266;48.798;44.756;2023-02-28T08:33:45;19.77;;;10.00;;
75667;SDS011;64266;48.798;44.756;2023-02-28T08:38:58;21.95;;;10.50;;
75667;SDS011;64266;48.798;44.756;2023-02-28T08:44:10;24.52;;;14.02;;
75667;SDS011;64266;48.798;44.756;2023-02-28T08:49:20;22.13;;;11.18;;
75667;SDS011;64266;48.798;44.756;2023-02-28T08:54:24;12.35;;;7.03;;
75667;SDS011;64266;48.798;44.756;2023-02-28T08:59:30;11.95;;;6.82;;
75667;SDS011;64266;48.798;44.756;2023-02-28T09:04:41;8.68;;;5.00;;
75667;SDS011;64266;48.798;44.756;2023-02-28T09:09:48;8.00;;;3.70;;
75667;SDS011;64266;48.798;44.756;2023-02-28T09:14:58;8.75;;;5.07;;
75667;SDS011;64266;48.798;44.756;2023-02-28T09:20:02;10.50;;;4.85;;
75667;SDS011;64266;48.798;44.756;2023-02-28T09:25:07;9.18;;;4.95;;
75667;SDS011;64266;48.798;44.756;2023-02-28T09:30:20;8.90;;;5.13;;
75667;SDS011;64266;48.798;44.756;2023-02-28T09:35:44;9.05;;;5.15;;
75667;SDS011;64266;48.798;44.756;2023-02-28T09:40:53;8.30;;;4.40;;
75667;SDS011;64266;48.798;44.756;2023-02-28T09:51:23;10.00;;;5.50;;
75667;SDS011;64266;48.798;44.756;2023-02-28T09:56:42;8.23;;;4.60;;
75667;SDS011;64266;48.798;44.756;2023-02-28T10:07:19;7.97;;;4.25;;
75667;SDS011;64266;48.798;44.756;2023-02-28T10:12:46;9.00;;;4.60;;
75667;SDS011;64266;48.798;44.756;2023-02-28T10:18:14;13.38;;;7.00;;
75667;SDS011;64266;48.798;44.756;2023-02-28T10:29:32;13.60;;;5.95;;
75667;SDS011;64266;48.798;44.756;2023-02-28T10:34:39;13.07;;;7.07;;
75667;SDS011;64266;48.798;44.756;2023-02-28T10:39:56;14.60;;;6.72;;
75667;SDS011;64266;48.798;44.756;2023-02-28T10:45:23;13.80;;;7.72;;
75667;SDS011;64266;48.798;44.756;2023-02-28T10:51:09;13.40;;;6.82;;
75667;SDS011;64266;48.798;44.756;2023-02-28T11:03:38;13.82;;;6.90;;
75667;SDS011;64266;48.798;44.756;2023-02-28T11:08:49;14.45;;;7.25;;
75667;SDS011;64266;48.798;44.756;2023-02-28T11:14:04;13.82;;;7.18;;
75667;SDS011;64266;48.798;44.756;2023-02-28T11:19:16;16.13;;;7.22;;
75667;SDS011;64266;48.798;44.756;2023-02-28T11:24:30;13.30;;;7.32;;
75667;SDS011;64266;48.798;44.756;2023-02-28T11:29:46;13.05;;;7.28;;
75667;SDS011;64266;48.798;44.756;2023-02-28T11:51:12;9.75;;;5.20;;
75667;SDS011;64266;48.798;44.756;2023-02-28T12:02:34;10.80;;;5.07;;
75667;SDS011;64266;48.798;44.756;2023-02-28T12:13:21;10.00;;;5.28;;
75667;SDS011;64266;48.798;44.756;2023-02-28T12:43:22;6.97;;;3.83;;
75667;SDS011;64266;48.798;44.756;2023-02-28T12:49:04;6.68;;;3.55;;
75667;SDS011;64266;48.798;44.756;2023-02-28T12:59:37;11.43;;;4.40;;
75667;SDS011;64266;48.798;44.756;2023-02-28T13:10:48;10.50;;;5.38;;
75667;SDS011;64266;48.798;44.756;2023-02-28T13:16:08;11.43;;;5.53;;
75667;SDS011;64266;48.798;44.756;2023-02-28T13:21:29;13.30;;;6.68;;
75667;SDS011;64266;48.798;44.756;2023-02-28T13:42:34;13.73;;;6.72;;
75667;SDS011;64266;48.798;44.756;2023-02-28T13:52:53;11.77;;;6.47;;
75667;SDS011;64266;48.798;44.756;2023-02-28T14:09:27;13.05;;;6.30;;
75667;SDS011;64266;48.798;44.756;2023-02-28T14:19:48;10.88;;;6.35;;
75667;SDS011;64266;48.798;44.756;2023-02-28T14:35:57;13.80;;;7.22;;
75667;SDS011;64266;48.798;44.756;2023-02-28T14:41:04;20.40;;;7.88;;
75667;SDS011;64266;48.798;44.756;2023-02-28T14:51:20;13.30;;;7.20;;
75667;SDS011;64266;48.798;44.756;2023-02-28T14:56:30;14.48;;;7.63;;
75667;SDS011;64266;48.798;44.756;2023-02-28T15:01:36;17.50;;;7.68;;
75667;SDS011;64266;48.798;44.756;2023-02-28T15:06:39;19.92;;;7.60;;
75667;SDS011;64266;48.798;44.756;2023-02-28T15:11:42;17.02;;;8.48;;
75667;SDS011;64266;48.798;44.756;2023-02-28T15:16:51;17.27;;;8.50;;
75667;SDS011;64266;48.798;44.756;2023-02-28T15:22:04;16.70;;;8.70;;
75667;SDS011;64266;48.798;44.756;2023-02-28T15:27:29;15.48;;;8.75;;
75667;SDS011;64266;48.798;44.756;2023-02-28T15:32:36;14.15;;;7.53;;
75667;SDS011;64266;48.798;44.756;2023-02-28T15:37:46;16.58;;;7.78;;
75667;SDS011;64266;48.798;44.756;2023-02-28T15:43:04;15.80;;;7.90;;
75667;SDS011;64266;48.798;44.756;2023-02-28T15:53:30;15.10;;;7.95;;
75667;SDS011;64266;48.798;44.756;2023-02-28T15:58:36;17.27;;;8.18;;
75667;SDS011;64266;48.798;44.756;2023-02-28T16:03:46;15.45;;;8.55;;
75667;SDS011;64266;48.798;44.756;2023-02-28T16:08:51;16.92;;;8.43;;
75667;SDS011;64266;48.798;44.756;2023-02-28T16:13:55;15.60;;;8.20;;
75667;SDS011;64266;48.798;44.756;2023-02-28T16:18:57;15.48;;;8.07;;
75667;SDS011;64266;48.798;44.756;2023-02-28T16:24:02;16.77;;;8.48;;
75667;SDS011;64266;48.798;44.756;2023-02-28T16:29:07;14.68;;;8.05;;
75667;SDS011;64266;48.798;44.756;2023-02-28T16:34:16;13.70;;;8.00;;
75667;SDS011;64266;48.798;44.756;2023-02-28T16:39:19;19.38;;;9.75;;
75667;SDS011;64266;48.798;44.756;2023-02-28T16:44:30;16.77;;;8.85;;
75667;SDS011;64266;48.798;44.756;2023-02-28T16:49:38;18.63;;;9.10;;
75667;SDS011;64266;48.798;44.756;2023-02-28T16:54:43;16.63;;;9.15;;
75667;SDS011;64266;48.798;44.756;2023-02-28T16:59:46;17.85;;;9.07;;
75667;SDS011;64266;48.798;44.756;2023-02-28T17:04:49;17.63;;;8.77;;
75667;SDS011;64266;48.798;44.756;2023-02-28T17:09:52;17.80;;;8.77;;
75667;SDS011;64266;48.798;44.756;2023-02-28T17:14:55;18.33;;;8.55;;
75667;SDS011;64266;48.798;44.756;2023-02-28T17:19:57;16.90;;;8.27;;
75667;SDS011;64266;48.798;44.756;2023-02-28T17:25:00;17.05;;;8.82;;
75667;SDS011;64266;48.798;44.756;2023-02-28T17:35:15;19.77;;;7.95;;
75667;SDS011;64266;48.798;44.756;2023-02-28T17:40:20;16.98;;;8.75;;
75667;SDS011;64266;48.798;44.756;2023-02-28T17:45:25;16.75;;;8.40;;
75667;SDS011;64266;48.798;44.756;2023-02-28T17:50:29;15.50;;;8.50;;
75667;SDS011;64266;48.798;44.756;2023-02-28T17:55:32;20.30;;;9.00;;
75667;SDS011;64266;48.798;44.756;2023-02-28T18:00:36;19.88;;;9.13;;
75667;SDS011;64266;48.798;44.756;2023-02-28T18:05:40;19.05;;;9.13;;
75667;SDS011;64266;48.798;44.756;2023-02-28T18:10:42;16.02;;;7.97;;
75667;SDS011;64266;48.798;44.756;2023-02-28T18:15:45;15.07;;;8.32;;
75667;SDS011;64266;48.798;44.756;2023-02-28T18:20:49;13.70;;;6.97;;
75667;SDS011;64266;48.798;44.756;2023-02-28T18:25:51;17.45;;;6.93;;
75667;SDS011;64266;48.798;44.756;2023-02-28T18:30:55;13.82;;;6.78;;
75667;SDS011;64266;48.798;44.756;2023-02-28T18:35:58;11.85;;;6.10;;
75667;SDS011;64266;48.798;44.756;2023-02-28T18:41:02;13.23;;;6.70;;
75667;SDS011;64266;48.798;44.756;2023-02-28T18:46:10;9.32;;;5.15;;
75667;SDS011;64266;48.798;44.756;2023-02-28T18:51:16;15.90;;;5.72;;
75667;SDS011;64266;48.798;44.756;2023-02-28T19:01:25;9.82;;;4.90;;
75667;SDS011;64266;48.798;44.756;2023-02-28T19:06:32;11.98;;;5.32;;
75667;SDS011;64266;48.798;44.756;2023-02-28T19:11:35;11.23;;;4.85;;
75667;SDS011;64266;48.798;44.756;2023-02-28T19:16:38;10.88;;;5.00;;
75667;SDS011;64266;48.798;44.756;2023-02-28T19:21:41;9.95;;;5.63;;
75667;SDS011;64266;48.798;44.756;2023-02-28T19:26:43;10.63;;;5.72;;
75667;SDS011;64266;48.798;44.756;2023-02-28T19:31:46;9.07;;;5.10;;
75667;SDS011;64266;48.798;44.756;2023-02-28T19:36:49;10.30;;;5.28;;
75667;SDS011;64266;48.798;44.756;2023-02-28T19:41:51;12.73;;;5.88;;
75667;SDS011;64266;48.798;44.756;2023-02-28T19:46:55;10.07;;;5.50;;
75667;SDS011;64266;48.798;44.756;2023-02-28T19:51:57;10.05;;;5.25;;
75667;SDS011;64266;48.798;44.756;2023-02-28T19:57:01;9.98;;;5.15;;
75667;SDS011;64266;48.798;44.756;2023-02-28T20:02:03;10.20;;;5.88;;
75667;SDS011;64266;48.798;44.756;2023-02-28T20:07:07;11.68;;;5.88;;
75667;SDS011;64266;48.798;44.756;2023-02-28T20:12:10;11.23;;;5.82;;
75667;SDS011;64266;48.798;44.756;2023-02-28T20:17:24;10.70;;;5.90;;
75667;SDS011;64266;48.798;44.756;2023-02-28T20:22:27;9.73;;;5.85;;
75667;SDS011;64266;48.798;44.756;2023-02-28T20:27:30;11.77;;;5.88;;
75667;SDS011;64266;48.798;44.756;2023-02-28T20:32:34;11.27;;;6.18;;
75667;SDS011;64266;48.798;44.756;2023-02-28T20:37:40;13.10;;;7.00;;
75667;SDS011;64266;48.798;44.756;2023-02-28T20:42:42;13.45;;;7.00;;
75667;SDS011;64266;48.798;44.756;2023-02-28T20:47:45;14.27;;;7.47;;
75667;SDS011;64266;48.798;44.756;2023-02-28T20:52:47;14.52;;;7.43;;
75667;SDS011;64266;48.798;44.756;2023-02-28T20:57:51;15.13;;;8.15;;
75667;SDS011;64266;48.798;44.756;2023-02-28T21:02:55;16.38;;;8.07;;
75667;SDS011;64266;48.798;44.756;2023-02-28T21:07:59;14.68;;;8.18;;
75667;SDS011;64266;48.798;44.756;2023-02-28T21:13:02;16.85;;;8.45;;
75667;SDS011;64266;48.798;44.756;2023-02-28T21:18:06;16.40;;;8.27;;
75667;SDS011;64266;48.798;44.756;2023-02-28T21:23:09;17.05;;;8.18;;
75667;SDS011;64266;48.798;44.756;2023-02-28T21:28:12;16.70;;;8.40;;
75667;SDS011;64266;48.798;44.756;2023-02-28T21:33:15;16.55;;;7.70;;
75667;SDS011;64266;48.798;44.756;2023-02-28T21:38:18;16.25;;;7.63;;
75667;SDS011;64266;48.798;44.756;2023-02-28T21:43:21;16.05;;;7.50;;
75667;SDS011;64266;48.798;44.756;2023-02-28T21:48:23;14.38;;;8.18;;
75667;SDS011;64266;48.798;44.756;2023-02-28T21:53:26;15.10;;;7.72;;
75667;SDS011;64266;48.798;44.756;2023-02-28T21:58:33;16.52;;;7.75;;
75667;SDS011;64266;48.798;44.756;2023-02-28T22:03:36;14.27;;;7.05;;
75667;SDS011;64266;48.798;44.756;2023-02-28T22:08:40;14.75;;;7.22;;
75667;SDS011;64266;48.798;44.756;2023-02-28T22:13:44;16.00;;;8.20;;
75667;SDS011;64266;48.798;44.756;2023-02-28T22:18:50;16.63;;;8.23;;
75667;SDS011;64266;48.798;44.756;2023-02-28T22:23:52;15.00;;;7.68;;
75667;SDS011;64266;48.798;44.756;2023-02-28T22:28:55;14.57;;;7.15;;
75667;SDS011;64266;48.798;44.756;2023-02-28T22:33:59;15.30;;;8.00;;
75667;SDS011;64266;48.798;44.756;2023-02-28T22:39:04;15.15;;;7.97;;
75667;SDS011;64266;48.798;44.756;2023-02-28T22:44:07;16.40;;;8.27;;
75667;SDS011;64266;48.798;44.756;2023-02-28T22:49:11;17.95;;;8.40;;
75667;SDS011;64266;48.798;44.756;2023-02-28T22:54:15;18.63;;;8.70;;
75667;SDS011;64266;48.798;44.756;2023-02-28T22:59:17;17.38;;;8.50;;
75667;SDS011;64266;48.798;44.756;2023-02-28T23:04:20;18.42;;;7.97;;
75667;SDS011;64266;48.798;44.756;2023-02-28T23:09:26;16.63;;;8.52;;
75667;SDS011;64266;48.798;44.756;2023-02-28T23:14:30;15.40;;;7.82;;
75667;SDS011;64266;48.798;44.756;2023-02-28T23:19:34;16.42;;;8.00;;
75667;SDS011;64266;48.798;44.756;2023-02-28T23:24:37;16.17;;;7.78;;
75667;SDS011;64266;48.798;44.756;2023-02-28T23:29:40;15.48;;;8.02;;
75667;SDS011;64266;48.798;44.756;2023-02-28T23:34:43;14.70;;;7.28;;
75667;SDS011;64266;48.798;44.756;2023-02-28T23:39:46;16.70;;;8.07;;
75667;SDS011;64266;48.798;44.756;2023-02-28T23:44:50;15.32;;;7.45;;
75667;SDS011;64266;48.798;44.756;2023-02-28T23:49:53;14.20;;;7.28;;
75667;SDS011;64266;48.798;44.756;2023-02-28T23:54:56;14.23;;;7.55;;
